sensor_id;sensor_type;location;lat;lon;timestamp;pressure;altitude;pressure_sealevel;temperature;humidity
30614;BME280;17381;51.690;5.270;2023-04-01T00:05:44;99085.13;;;9.51;100.00
30614;BME280;17381;51.690;5.270;2023-04-01T00:08:49;99087.59;;;9.54;100.00
30614;BME280;17381;51.690;5.270;2023-04-01T00:26:19;99059.72;;;9.34;100.00
30614;BME280;17381;51.690;5.270;2023-04-01T00:29:41;99104.72;;;9.61;100.00
30614;BME280;17381;51.690;5.270;2023-04-01T00:33:03;99106.25;;;9.65;100.00
30614;BME280;17381;51.690;5.270;2023-04-01T00:36:17;99112.38;;;9.66;100.00
30614;BME280;17381;51.690;5.270;2023-04-01T00:39:05;99113.38;;;9.63;100.00
30614;BME280;17381;51.690;5.270;2023-04-01T00:42:01;99115.06;;;9.64;100.00
30614;BME280;17381;51.690;5.270;2023-04-01T00:44:42;99115.63;;;9.71;100.00
30614;BME280;17381;51.690;5.270;2023-04-01T00:47:29;99070.47;;;9.47;100.00
30614;BME280;17381;51.690;5.270;2023-04-01T00:50:33;99132.19;;;9.71;100.00
30614;BME280;17381;51.690;5.270;2023-04-01T00:53:41;99122.59;;;9.70;100.00
30614;BME280;17381;51.690;5.270;2023-04-01T00:56:50;99127.13;;;9.68;100.00
30614;BME280;17381;51.690;5.270;2023-04-01T00:59:44;99127.97;;;9.69;100.00
30614;BME280;17381;51.690;5.270;2023-04-01T01:02:41;99129.88;;;9.65;100.00
30614;BME280;17381;51.690;5.270;2023-04-01T01:05:30;99129.72;;;9.68;100.00
30614;BME280;17381;51.690;5.270;2023-04-01T01:08:32;99140.28;;;9.67;100.00
30614;BME280;17381;51.690;5.270;2023-04-01T01:11:35;99141.91;;;9.69;100.00
30614;BME280;17381;51.690;5.270;2023-04-01T01:14:37;99138.59;;;9.66;100.00
30614;BME280;17381;51.690;5.270;2023-04-01T01:19:03;99137.72;;;9.65;100.00
30614;BME280;17381;51.690;5.270;2023-04-01T01:30:04;99106.94;;;9.34;100.00
30614;BME280;17381;51.690;5.270;2023-04-01T01:32:55;99150.53;;;9.54;100.00
30614;BME280;17381;51.690;5.270;2023-04-01T01:35:50;99103.00;;;9.25;100.00
30614;BME280;17381;51.690;5.270;2023-04-01T01:38:35;99120.81;;;9.36;100.00
30614;BME280;17381;51.690;5.270;2023-04-01T01:41:10;99149.97;;;9.47;100.00
30614;BME280;17381;51.690;5.270;2023-04-01T01:43:56;99149.22;;;9.45;100.00
30614;BME280;17381;51.690;5.270;2023-04-01T01:46:40;99157.16;;;9.44;100.00
30614;BME280;17381;51.690;5.270;2023-04-01T01:49:20;99157.22;;;9.42;100.00
30614;BME280;17381;51.690;5.270;2023-04-01T01:51:55;99168.56;;;9.43;100.00
30614;BME280;17381;51.690;5.270;2023-04-01T01:54:28;99167.84;;;9.39;100.00
30614;BME280;17381;51.690;5.270;2023-04-01T01:57:19;99172.88;;;9.44;100.00
30614;BME280;17381;51.690;5.270;2023-04-01T01:59:52;99167.00;;;9.38;100.00
30614;BME280;17381;51.690;5.270;2023-04-01T02:02:28;99172.41;;;9.35;100.00
30614;BME280;17381;51.690;5.270;2023-04-01T02:05:03;99152.59;;;9.30;100.00
30614;BME280;17381;51.690;5.270;2023-04-01T02:07:49;99167.16;;;9.35;100.00
30614;BME280;17381;51.690;5.270;2023-04-01T02:10:28;99174.25;;;9.33;100.00
30614;BME280;17381;51.690;5.270;2023-04-01T02:13:10;99136.13;;;9.09;100.00
30614;BME280;17381;51.690;5.270;2023-04-01T02:15:54;99184.75;;;9.33;100.00
30614;BME280;17381;51.690;5.270;2023-04-01T02:18:36;99175.25;;;9.31;100.00
30614;BME280;17381;51.690;5.270;2023-04-01T02:21:06;99173.72;;;9.27;100.00
30614;BME280;17381;51.690;5.270;2023-04-01T02:23:46;99178.56;;;9.34;100.00
30614;BME280;17381;51.690;5.270;2023-04-01T02:26:22;99150.91;;;9.10;100.00
30614;BME280;17381;51.690;5.270;2023-04-01T02:29:06;99188.28;;;9.32;100.00
30614;BME280;17381;51.690;5.270;2023-04-01T02:31:49;99182.31;;;9.29;100.00
30614;BME280;17381;51.690;5.270;2023-04-01T02:34:27;99184.03;;;9.30;100.00
30614;BME280;17381;51.690;5.270;2023-04-01T02:37:08;99189.34;;;9.28;100.00
30614;BME280;17381;51.690;5.270;2023-04-01T02:39:40;99168.06;;;9.17;100.00
30614;BME280;17381;51.690;5.270;2023-04-01T02:42:19;99151.84;;;9.09;100.00
30614;BME280;17381;51.690;5.270;2023-04-01T02:44:53;99178.94;;;9.27;100.00
30614;BME280;17381;51.690;5.270;2023-04-01T02:47:25;99189.50;;;9.25;100.00
30614;BME280;17381;51.690;5.270;2023-04-01T02:50:04;99192.13;;;9.25;100.00
30614;BME280;17381;51.690;5.270;2023-04-01T02:52:33;99192.13;;;9.25;100.00
30614;BME280;17381;51.690;5.270;2023-04-01T02:55:02;99198.31;;;9.24;100.00
30614;BME280;17381;51.690;5.270;2023-04-01T02:57:34;99194.69;;;9.27;100.00
30614;BME280;17381;51.690;5.270;2023-04-01T03:00:09;99195.69;;;9.24;100.00
30614;BME280;17381;51.690;5.270;2023-04-01T03:02:54;99201.81;;;9.23;100.00
30614;BME280;17381;51.690;5.270;2023-04-01T03:05:26;99206.16;;;9.24;100.00
30614;BME280;17381;51.690;5.270;2023-04-01T03:08:01;99199.19;;;9.23;100.00
30614;BME280;17381;51.690;5.270;2023-04-01T03:10:36;99210.63;;;9.22;100.00
30614;BME280;17381;51.690;5.270;2023-04-01T03:13:07;99216.72;;;9.23;100.00
30614;BME280;17381;51.690;5.270;2023-04-01T03:15:44;99215.88;;;9.22;100.00
30614;BME280;17381;51.690;5.270;2023-04-01T03:18:15;99213.25;;;9.22;100.00
30614;BME280;17381;51.690;5.270;2023-04-01T03:20:49;99224.56;;;9.23;100.00
30614;BME280;17381;51.690;5.270;2023-04-01T03:23:33;99213.25;;;9.22;100.00
30614;BME280;17381;51.690;5.270;2023-04-01T03:26:24;99222.00;;;9.21;100.00
30614;BME280;17381;51.690;5.270;2023-04-01T03:28:55;99220.31;;;9.20;100.00
30614;BME280;17381;51.690;5.270;2023-04-01T03:31:25;99230.81;;;9.20;100.00
30614;BME280;17381;51.690;5.270;2023-04-01T03:33:57;99230.88;;;9.18;100.00
30614;BME280;17381;51.690;5.270;2023-04-01T03:36:44;99229.97;;;9.20;100.00
30614;BME280;17381;51.690;5.270;2023-04-01T03:39:23;99192.84;;;8.91;100.00
30614;BME280;17381;51.690;5.270;2023-04-01T03:42:03;99230.47;;;9.09;100.00
30614;BME280;17381;51.690;5.270;2023-04-01T03:44:49;99225.34;;;9.06;100.00
30614;BME280;17381;51.690;5.270;2023-04-01T03:47:31;99228.84;;;9.06;100.00
30614;BME280;17381;51.690;5.270;2023-04-01T03:50:03;99231.38;;;9.08;100.00
30614;BME280;17381;51.690;5.270;2023-04-01T03:52:39;99247.94;;;9.08;100.00
30614;BME280;17381;51.690;5.270;2023-04-01T03:55:18;99231.50;;;9.05;100.00
30614;BME280;17381;51.690;5.270;2023-04-01T03:57:59;99216.47;;;8.89;100.00
30614;BME280;17381;51.690;5.270;2023-04-01T04:00:33;99248.16;;;9.04;100.00
30614;BME280;17381;51.690;5.270;2023-04-01T04:03:07;99250.78;;;9.04;100.00
30614;BME280;17381;51.690;5.270;2023-04-01T04:05:36;99259.56;;;9.03;100.00
30614;BME280;17381;51.690;5.270;2023-04-01T04:08:06;99241.28;;;9.01;100.00
30614;BME280;17381;51.690;5.270;2023-04-01T04:10:38;99255.09;;;9.05;100.00
30614;BME280;17381;51.690;5.270;2023-04-01T04:13:24;99265.63;;;9.03;100.00
30614;BME280;17381;51.690;5.270;2023-04-01T04:16:03;99252.88;;;8.95;100.00
30614;BME280;17381;51.690;5.270;2023-04-01T04:18:39;99274.44;;;9.02;100.00
30614;BME280;17381;51.690;5.270;2023-04-01T04:21:18;99264.94;;;9.00;100.00
30614;BME280;17381;51.690;5.270;2023-04-01T04:24:04;99265.88;;;8.99;100.00
30614;BME280;17381;51.690;5.270;2023-04-01T04:27:01;99261.63;;;8.96;100.00
30614;BME280;17381;51.690;5.270;2023-04-01T04:29:41;99268.59;;;8.95;100.00
30614;BME280;17381;51.690;5.270;2023-04-01T04:32:24;99260.09;;;8.90;100.00
30614;BME280;17381;51.690;5.270;2023-04-01T04:35:01;99275.47;;;8.98;100.00
30614;BME280;17381;51.690;5.270;2023-04-01T04:37:32;99278.09;;;8.98;100.00
30614;BME280;17381;51.690;5.270;2023-04-01T04:40:07;99289.44;;;8.99;100.00
30614;BME280;17381;51.690;5.270;2023-04-01T04:42:46;99282.69;;;8.93;100.00
30614;BME280;17381;51.690;5.270;2023-04-01T04:45:52;99281.59;;;8.99;100.00
30614;BME280;17381;51.690;5.270;2023-04-01T04:48:29;99298.94;;;9.01;100.00
30614;BME280;17381;51.690;5.270;2023-04-01T04:50:57;99291.94;;;9.02;100.00
30614;BME280;17381;51.690;5.270;2023-04-01T04:53:41;99290.50;;;8.94;100.00
30614;BME280;17381;51.690;5.270;2023-04-01T04:56:08;99300.78;;;8.99;100.00
30614;BME280;17381;51.690;5.270;2023-04-01T04:59:03;99258.16;;;8.75;100.00
30614;BME280;17381;51.690;5.270;2023-04-01T05:01:45;99315.31;;;9.06;100.00
30614;BME280;17381;51.690;5.270;2023-04-01T05:04:22;99325.81;;;9.06;100.00
30614;BME280;17381;51.690;5.270;2023-04-01T05:06:54;99326.66;;;9.07;100.00
30614;BME280;17381;51.690;5.270;2023-04-01T05:09:38;99325.72;;;9.08;100.00
30614;BME280;17381;51.690;5.270;2023-04-01T05:12:14;99333.53;;;9.09;100.00
30614;BME280;17381;51.690;5.270;2023-04-01T05:14:59;99337.91;;;9.09;100.00
30614;BME280;17381;51.690;5.270;2023-04-01T05:17:36;99340.41;;;9.12;100.00
30614;BME280;17381;51.690;5.270;2023-04-01T05:20:11;99337.19;;;9.05;100.00
30614;BME280;17381;51.690;5.270;2023-04-01T05:22:46;99358.59;;;9.15;100.00
30614;BME280;17381;51.690;5.270;2023-04-01T05:25:19;99346.50;;;9.12;100.00
30614;BME280;17381;51.690;5.270;2023-04-01T05:27:54;99342.09;;;9.13;100.00
30614;BME280;17381;51.690;5.270;2023-04-01T05:30:29;99360.94;;;9.21;100.00
30614;BME280;17381;51.690;5.270;2023-04-01T05:33:32;99300.72;;;8.80;100.00
30614;BME280;17381;51.690;5.270;2023-04-01T05:36:13;99295.56;;;8.79;100.00
30614;BME280;17381;51.690;5.270;2023-04-01T05:38:57;99374.06;;;9.21;100.00
30614;BME280;17381;51.690;5.270;2023-04-01T05:41:42;99368.56;;;9.27;100.00
30614;BME280;17381;51.690;5.270;2023-04-01T05:44:18;99383.31;;;9.30;100.00
30614;BME280;17381;51.690;5.270;2023-04-01T05:47:07;99384.84;;;9.34;100.00
30614;BME280;17381;51.690;5.270;2023-04-01T05:49:45;99382.38;;;9.31;100.00
30614;BME280;17381;51.690;5.270;2023-04-01T05:52:22;99393.50;;;9.36;100.00
30614;BME280;17381;51.690;5.270;2023-04-01T05:54:57;99392.50;;;9.38;100.00
30614;BME280;17381;51.690;5.270;2023-04-01T05:57:26;99393.31;;;9.41;100.00
30614;BME280;17381;51.690;5.270;2023-04-01T06:00:04;99397.72;;;9.40;100.00
30614;BME280;17381;51.690;5.270;2023-04-01T06:02:45;99405.44;;;9.43;100.00
30614;BME280;17381;51.690;5.270;2023-04-01T06:08:37;99421.06;;;9.45;100.00
30614;BME280;17381;51.690;5.270;2023-04-01T06:14:40;99410.28;;;9.32;100.00
30614;BME280;17381;51.690;5.270;2023-04-01T06:23:09;99447.94;;;9.50;100.00
30614;BME280;17381;51.690;5.270;2023-04-01T06:26:14;99447.84;;;9.53;100.00
30614;BME280;17381;51.690;5.270;2023-04-01T06:29:14;99468.81;;;9.53;100.00
30614;BME280;17381;51.690;5.270;2023-04-01T06:44:23;99475.63;;;9.57;100.00
30614;BME280;17381;51.690;5.270;2023-04-01T06:47:51;99479.31;;;9.53;100.00
30614;BME280;17381;51.690;5.270;2023-04-01T06:50:57;99480.31;;;9.50;100.00
30614;BME280;17381;51.690;5.270;2023-04-01T06:57:24;99485.47;;;9.52;100.00
30614;BME280;17381;51.690;5.270;2023-04-01T07:00:17;99473.00;;;9.36;100.00
30614;BME280;17381;51.690;5.270;2023-04-01T07:03:06;99493.41;;;9.50;100.00
30614;BME280;17381;51.690;5.270;2023-04-01T07:05:50;99494.13;;;9.54;100.00
30614;BME280;17381;51.690;5.270;2023-04-01T07:08:38;99504.47;;;9.57;100.00
30614;BME280;17381;51.690;5.270;2023-04-01T07:11:43;99513.13;;;9.59;100.00
30614;BME280;17381;51.690;5.270;2023-04-01T07:15:36;99505.41;;;9.56;100.00
30614;BME280;17381;51.690;5.270;2023-04-01T07:18:01;99476.44;;;9.38;100.00
30614;BME280;17381;51.690;5.270;2023-04-01T07:21:04;99489.41;;;9.42;100.00
30614;BME280;17381;51.690;5.270;2023-04-01T07:23:44;99524.00;;;9.70;100.00
30614;BME280;17381;51.690;5.270;2023-04-01T07:26:37;99532.66;;;9.72;100.00
30614;BME280;17381;51.690;5.270;2023-04-01T07:29:30;99532.53;;;9.75;100.00
30614;BME280;17381;51.690;5.270;2023-04-01T07:35:07;99543.97;;;9.74;100.00
30614;BME280;17381;51.690;5.270;2023-04-01T07:44:29;99555.25;;;9.76;100.00
30614;BME280;17381;51.690;5.270;2023-04-01T07:47:14;99555.91;;;9.81;100.00
30614;BME280;17381;51.690;5.270;2023-04-01T07:50:17;99563.63;;;9.85;100.00
30614;BME280;17381;51.690;5.270;2023-04-01T07:56:32;99575.97;;;9.82;100.00
30614;BME280;17381;51.690;5.270;2023-04-01T08:05:27;99591.47;;;9.89;100.00
30614;BME280;17381;51.690;5.270;2023-04-01T08:15:21;99601.72;;;9.93;100.00
30614;BME280;17381;51.690;5.270;2023-04-01T08:21:34;99613.22;;;9.91;100.00
30614;BME280;17381;51.690;5.270;2023-04-01T08:24:38;99624.22;;;9.99;100.00
30614;BME280;17381;51.690;5.270;2023-04-01T08:27:41;99619.78;;;10.01;99.46
30614;BME280;17381;51.690;5.270;2023-04-01T08:30:19;99578.72;;;9.79;99.36
30614;BME280;17381;51.690;5.270;2023-04-01T08:33:00;99627.47;;;10.05;99.46
30614;BME280;17381;51.690;5.270;2023-04-01T08:35:48;99625.69;;;10.06;99.19
30614;BME280;17381;51.690;5.270;2023-04-01T08:38:27;99630.88;;;10.08;99.34
30614;BME280;17381;51.690;5.270;2023-04-01T08:56:57;99658.94;;;10.28;98.05
30614;BME280;17381;51.690;5.270;2023-04-01T09:05:40;99635.38;;;10.24;98.85
30614;BME280;17381;51.690;5.270;2023-04-01T09:19:53;99689.56;;;10.47;97.50
30614;BME280;17381;51.690;5.270;2023-04-01T09:25:54;99699.81;;;10.33;97.55
30614;BME280;17381;51.690;5.270;2023-04-01T09:28:50;99701.72;;;10.30;97.93
30614;BME280;17381;51.690;5.270;2023-04-01T09:34:54;99705.28;;;10.27;98.82
30614;BME280;17381;51.690;5.270;2023-04-01T09:37:36;99711.44;;;10.28;99.22
30614;BME280;17381;51.690;5.270;2023-04-01T09:40:58;99712.22;;;10.30;98.85
30614;BME280;17381;51.690;5.270;2023-04-01T09:47:33;99719.34;;;10.28;98.65
30614;BME280;17381;51.690;5.270;2023-04-01T09:50:27;99719.19;;;10.31;98.69
30614;BME280;17381;51.690;5.270;2023-04-01T09:56:41;99724.44;;;10.31;98.04
30614;BME280;17381;51.690;5.270;2023-04-01T10:24:05;99769.00;;;10.73;99.77
30614;BME280;17381;51.690;5.270;2023-04-01T10:39:33;99770.97;;;10.68;99.56
30614;BME280;17381;51.690;5.270;2023-04-01T11:01:01;99775.34;;;10.69;99.52
30614;BME280;17381;51.690;5.270;2023-04-01T11:08:04;99785.38;;;10.80;100.00
30614;BME280;17381;51.690;5.270;2023-04-01T11:19:36;99799.69;;;10.93;99.35
30614;BME280;17381;51.690;5.270;2023-04-01T11:22:44;99795.47;;;10.89;99.23
30614;BME280;17381;51.690;5.270;2023-04-01T11:25:41;99804.56;;;10.82;99.17
30614;BME280;17381;51.690;5.270;2023-04-01T11:31:41;99805.00;;;10.91;99.80
30614;BME280;17381;51.690;5.270;2023-04-01T11:44:04;99826.19;;;11.07;97.49
30614;BME280;17381;51.690;5.270;2023-04-01T11:50:33;99836.66;;;11.09;97.32
30614;BME280;17381;51.690;5.270;2023-04-01T12:02:48;99855.34;;;11.03;96.78
30614;BME280;17381;51.690;5.270;2023-04-01T12:05:32;99851.66;;;11.07;97.54
30614;BME280;17381;51.690;5.270;2023-04-01T12:19:44;99868.16;;;11.10;96.81
30614;BME280;17381;51.690;5.270;2023-04-01T12:36:59;99885.78;;;11.08;96.38
30614;BME280;17381;51.690;5.270;2023-04-01T12:39:59;99887.47;;;11.09;95.44
30614;BME280;17381;51.690;5.270;2023-04-01T12:42:47;99894.84;;;11.01;95.49
30614;BME280;17381;51.690;5.270;2023-04-01T12:48:47;99898.75;;;10.93;94.73
30614;BME280;17381;51.690;5.270;2023-04-01T13:08:24;99924.03;;;10.75;96.05
30614;BME280;17381;51.690;5.270;2023-04-01T13:11:06;99930.19;;;10.74;96.71
30614;BME280;17381;51.690;5.270;2023-04-01T13:16:31;99945.59;;;10.83;96.81
30614;BME280;17381;51.690;5.270;2023-04-01T13:23:01;99936.72;;;10.85;96.91
30614;BME280;17381;51.690;5.270;2023-04-01T13:28:25;99915.25;;;10.54;96.76
30614;BME280;17381;51.690;5.270;2023-04-01T13:31:34;99947.53;;;10.78;96.87
30614;BME280;17381;51.690;5.270;2023-04-01T13:45:17;99956.50;;;10.94;96.54
30614;BME280;17381;51.690;5.270;2023-04-01T13:59:31;99973.25;;;10.91;96.28
30614;BME280;17381;51.690;5.270;2023-04-01T14:10:48;99944.06;;;10.55;97.55
30614;BME280;17381;51.690;5.270;2023-04-01T14:13:41;99987.09;;;10.75;97.63
30614;BME280;17381;51.690;5.270;2023-04-01T14:16:58;99993.34;;;10.72;98.58
30614;BME280;17381;51.690;5.270;2023-04-01T14:20:25;99998.41;;;10.77;99.09
30614;BME280;17381;51.690;5.270;2023-04-01T14:23:30;100005.25;;;10.81;99.45
30614;BME280;17381;51.690;5.270;2023-04-01T14:38:02;100015.66;;;11.04;99.60
30614;BME280;17381;51.690;5.270;2023-04-01T14:41:02;100011.53;;;10.99;99.50
30614;BME280;17381;51.690;5.270;2023-04-01T14:49:51;99978.66;;;10.44;99.47
30614;BME280;17381;51.690;5.270;2023-04-01T14:52:38;100034.63;;;10.68;99.96
30614;BME280;17381;51.690;5.270;2023-04-01T14:55:48;100037.22;;;10.70;99.61
30614;BME280;17381;51.690;5.270;2023-04-01T14:58:45;100034.75;;;10.65;99.98
30614;BME280;17381;51.690;5.270;2023-04-01T15:01:43;100027.06;;;10.61;100.00
30614;BME280;17381;51.690;5.270;2023-04-01T15:10:34;100055.91;;;10.62;100.00
30614;BME280;17381;51.690;5.270;2023-04-01T15:13:36;100054.00;;;10.66;100.00
30614;BME280;17381;51.690;5.270;2023-04-01T15:16:19;100052.47;;;10.60;100.00
30614;BME280;17381;51.690;5.270;2023-04-01T15:19:20;100058.66;;;10.59;100.00
30614;BME280;17381;51.690;5.270;2023-04-01T15:31:34;100068.38;;;10.57;100.00
30614;BME280;17381;51.690;5.270;2023-04-01T15:49:48;100068.75;;;10.48;100.00
30614;BME280;17381;51.690;5.270;2023-04-01T16:01:51;100087.50;;;10.37;100.00
30614;BME280;17381;51.690;5.270;2023-04-01T16:04:58;100097.94;;;10.40;100.00
30614;BME280;17381;51.690;5.270;2023-04-01T16:18:23;100126.81;;;10.40;100.00
30614;BME280;17381;51.690;5.270;2023-04-01T16:21:33;100129.50;;;10.39;100.00
30614;BME280;17381;51.690;5.270;2023-04-01T16:28:19;100144.28;;;10.41;100.00
30614;BME280;17381;51.690;5.270;2023-04-01T16:34:34;100150.47;;;10.40;100.00
30614;BME280;17381;51.690;5.270;2023-04-01T16:37:47;100155.47;;;10.46;100.00
30614;BME280;17381;51.690;5.270;2023-04-01T16:41:26;100165.03;;;10.49;100.00
30614;BME280;17381;51.690;5.270;2023-04-01T16:44:43;100093.09;;;10.03;100.00
30614;BME280;17381;51.690;5.270;2023-04-01T16:47:55;100172.78;;;10.52;100.00
30614;BME280;17381;51.690;5.270;2023-04-01T16:51:21;100182.50;;;10.50;100.00
30614;BME280;17381;51.690;5.270;2023-04-01T16:55:12;100186.03;;;10.49;100.00
30614;BME280;17381;51.690;5.270;2023-04-01T16:57:48;100190.34;;;10.52;100.00
30614;BME280;17381;51.690;5.270;2023-04-01T17:00:50;100202.38;;;10.57;100.00
30614;BME280;17381;51.690;5.270;2023-04-01T17:04:04;100206.63;;;10.61;100.00
30614;BME280;17381;51.690;5.270;2023-04-01T17:06:54;100220.53;;;10.63;100.00
30614;BME280;17381;51.690;5.270;2023-04-01T17:22:27;100245.34;;;10.56;100.00
30614;BME280;17381;51.690;5.270;2023-04-01T17:32:41;100275.41;;;10.47;100.00
30614;BME280;17381;51.690;5.270;2023-04-01T17:35:54;100278.31;;;10.40;100.00
30614;BME280;17381;51.690;5.270;2023-04-01T17:39:03;100286.41;;;10.34;100.00
30614;BME280;17381;51.690;5.270;2023-04-01T17:50:44;100314.69;;;10.25;100.00
30614;BME280;17381;51.690;5.270;2023-04-01T17:53:27;100316.44;;;10.25;100.00
30614;BME280;17381;51.690;5.270;2023-04-01T18:04:50;100354.97;;;10.24;100.00
30614;BME280;17381;51.690;5.270;2023-04-01T18:13:26;100364.94;;;10.15;100.00
30614;BME280;17381;51.690;5.270;2023-04-01T18:16:15;100372.94;;;10.10;100.00
30614;BME280;17381;51.690;5.270;2023-04-01T18:22:43;100395.78;;;10.07;100.00
30614;BME280;17381;51.690;5.270;2023-04-01T18:25:52;100401.22;;;10.02;100.00
30614;BME280;17381;51.690;5.270;2023-04-01T18:28:49;100357.56;;;9.70;100.00
30614;BME280;17381;51.690;5.270;2023-04-01T18:31:45;100419.00;;;9.92;100.00
30614;BME280;17381;51.690;5.270;2023-04-01T18:40:38;100411.94;;;9.65;100.00
30614;BME280;17381;51.690;5.270;2023-04-01T18:43:28;100448.44;;;9.72;100.00
30614;BME280;17381;51.690;5.270;2023-04-01T18:46:44;100452.03;;;9.70;100.00
30614;BME280;17381;51.690;5.270;2023-04-01T18:49:44;100376.47;;;9.20;100.00
30614;BME280;17381;51.690;5.270;2023-04-01T18:52:44;100465.25;;;9.65;100.00
30614;BME280;17381;51.690;5.270;2023-04-01T18:58:46;100476.91;;;9.55;100.00
30614;BME280;17381;51.690;5.270;2023-04-01T19:01:28;100484.88;;;9.52;100.00
30614;BME280;17381;51.690;5.270;2023-04-01T19:06:58;100502.22;;;9.57;100.00
30614;BME280;17381;51.690;5.270;2023-04-01T19:09:54;100504.81;;;9.59;100.00
30614;BME280;17381;51.690;5.270;2023-04-01T19:21:33;100535.66;;;9.49;100.00
30614;BME280;17381;51.690;5.270;2023-04-01T19:33:35;100510.28;;;9.17;100.00
30614;BME280;17381;51.690;5.270;2023-04-01T19:39:44;100568.94;;;9.47;100.00
30614;BME280;17381;51.690;5.270;2023-04-01T19:53:59;100580.53;;;9.38;99.01
30614;BME280;17381;51.690;5.270;2023-04-01T19:56:41;100593.81;;;9.32;98.93
30614;BME280;17381;51.690;5.270;2023-04-01T19:59:24;100600.09;;;9.25;98.15
30614;BME280;17381;51.690;5.270;2023-04-01T20:05:34;100610.88;;;9.13;96.55
30614;BME280;17381;51.690;5.270;2023-04-01T20:10:56;100617.16;;;9.06;96.62
30614;BME280;17381;51.690;5.270;2023-04-01T20:13:45;100641.47;;;9.14;95.93
30614;BME280;17381;51.690;5.270;2023-04-01T20:20:15;100626.13;;;8.95;95.81
30614;BME280;17381;51.690;5.270;2023-04-01T20:22:33;100610.72;;;8.83;94.87
30614;BME280;17381;51.690;5.270;2023-04-01T20:51:37;100710.13;;;8.91;92.38
30614;BME280;17381;51.690;5.270;2023-04-01T21:05:11;100739.22;;;8.79;90.80
30614;BME280;17381;51.690;5.270;2023-04-01T21:18:54;100779.66;;;8.64;91.71
30614;BME280;17381;51.690;5.270;2023-04-01T21:22:39;100794.59;;;8.59;92.21
30614;BME280;17381;51.690;5.270;2023-04-01T21:25:47;100802.66;;;8.48;93.11
30614;BME280;17381;51.690;5.270;2023-04-01T21:47:38;100839.88;;;8.13;95.50
30614;BME280;17381;51.690;5.270;2023-04-01T22:27:58;100918.72;;;7.93;95.35
30614;BME280;17381;51.690;5.270;2023-04-01T22:31:19;100921.34;;;7.91;93.94
30614;BME280;17381;51.690;5.270;2023-04-01T22:43:47;100946.69;;;7.88;94.14
30614;BME280;17381;51.690;5.270;2023-04-01T22:46:39;100949.31;;;7.86;94.36
30614;BME280;17381;51.690;5.270;2023-04-01T22:49:35;100949.31;;;7.86;94.28
30614;BME280;17381;51.690;5.270;2023-04-01T22:55:44;100965.06;;;7.83;93.26
30614;BME280;17381;51.690;5.270;2023-04-01T23:02:28;100976.44;;;7.80;93.37
30614;BME280;17381;51.690;5.270;2023-04-01T23:06:09;100974.72;;;7.78;92.85
30614;BME280;17381;51.690;5.270;2023-04-01T23:09:30;100980.91;;;7.71;92.50
30614;BME280;17381;51.690;5.270;2023-04-01T23:12:35;100987.88;;;7.70;91.39
30614;BME280;17381;51.690;5.270;2023-04-01T23:23:00;100997.69;;;7.51;91.15
30614;BME280;17381;51.690;5.270;2023-04-01T23:26:17;100990.03;;;7.33;91.52
30614;BME280;17381;51.690;5.270;2023-04-01T23:29:16;101017.72;;;7.52;91.25
30614;BME280;17381;51.690;5.270;2023-04-01T23:32:00;101028.19;;;7.52;92.08
30614;BME280;17381;51.690;5.270;2023-04-01T23:34:36;100986.59;;;7.28;91.76
